Time;durP1;ratioP1;P1;durP2;ratioP2;P2;SDS_P1;SDS_P2;PMS_P1;PMS_P2;Temp;Humidity;BMP_temperature;BMP_pressure;BME280_temperature;BME280_humidity;BME280_pressure;Samples;Min_cycle;Max_cycle;Signal;HPM_P1;HPM_P2
2022/04/25 00:07:34;;;;;;;3.22;2.13;;;;;;;;;;21080331;28;20047;-87
2022/04/25 00:17:36;;;;;;;3.33;2.20;;;;;;;;;;21113834;28;20043;-86
2022/04/25 00:27:38;;;;;;;2.00;1.80;;;;;;;;;;21090179;28;20151;-83
2022/04/25 00:37:40;;;;;;;3.92;1.95;;;;;;;;;;21070421;28;20044;-84
2022/04/25 00:47:42;;;;;;;2.83;2.30;;;;;;;;;;21080993;28;20032;-86
2022/04/25 00:57:44;;;;;;;2.95;1.85;;;;;;;;;;21079198;28;20047;-86
2022/04/25 01:07:46;;;;;;;3.72;2.10;;;;;;;;;;21081997;28;20404;-85
2022/04/25 01:17:48;;;;;;;2.95;2.10;;;;;;;;;;21103811;28;20043;-88
2022/04/25 01:27:50;;;;;;;2.58;2.10;;;;;;;;;;21080490;27;20053;-86
2022/04/25 01:37:52;;;;;;;3.50;2.13;;;;;;;;;;21107523;28;20047;-87
2022/04/25 01:47:55;;;;;;;2.70;2.35;;;;;;;;;;21102901;28;20501;-86
2022/04/25 01:57:57;;;;;;;3.05;1.90;;;;;;;;;;21095095;28;20130;-85
2022/04/25 02:07:58;;;;;;;3.35;2.83;;;;;;;;;;21082645;28;20159;-86
2022/04/25 02:18:00;;;;;;;2.50;2.30;;;;;;;;;;21127746;28;20493;-85
2022/04/25 02:28:02;;;;;;;2.25;2.00;;;;;;;;;;21107203;28;20043;-86
2022/04/25 02:38:04;;;;;;;2.55;2.33;;;;;;;;;;21101006;28;20056;-88
2022/04/25 02:48:06;;;;;;;3.95;2.53;;;;;;;;;;21119301;28;20135;-87
2022/04/25 02:58:10;;;;;;;2.63;2.03;;;;;;;;;;21111691;28;20046;-87
2022/04/25 03:08:22;;;;;;;3.00;2.20;;;;;;;;;;21110295;28;20096;-86
2022/04/25 03:18:23;;;;;;;2.75;2.03;;;;;;;;;;21110409;28;20051;-87
2022/04/25 03:28:25;;;;;;;2.97;2.08;;;;;;;;;;21070491;28;20065;-86
2022/04/25 03:38:28;;;;;;;2.88;1.92;;;;;;;;;;21114056;28;20405;-87
2022/04/25 03:48:30;;;;;;;2.85;2.00;;;;;;;;;;21087859;28;20044;-89
2022/04/25 03:58:32;;;;;;;2.67;1.88;;;;;;;;;;21096091;28;20039;-84
2022/04/25 04:08:34;;;;;;;2.13;1.73;;;;;;;;;;21072577;28;20077;-82
2022/04/25 04:18:36;;;;;;;2.03;1.83;;;;;;;;;;21080872;28;20115;-83
2022/04/25 04:28:38;;;;;;;3.63;2.03;;;;;;;;;;21075817;28;20058;-82
2022/04/25 04:38:40;;;;;;;2.47;1.52;;;;;;;;;;21164895;28;20048;-88
2022/04/25 04:48:41;;;;;;;2.47;1.63;;;;;;;;;;21077302;28;20482;-85
2022/04/25 04:58:43;;;;;;;2.00;1.60;;;;;;;;;;21106048;27;20458;-84
2022/04/25 05:08:45;;;;;;;1.90;1.50;;;;;;;;;;21155478;28;20043;-85
2022/04/25 05:18:47;;;;;;;2.40;1.52;;;;;;;;;;21104505;28;20512;-82
2022/04/25 05:28:48;;;;;;;2.80;1.67;;;;;;;;;;21083710;28;20047;-88
2022/04/25 05:38:50;;;;;;;2.90;1.67;;;;;;;;;;21150371;28;20048;-90
2022/04/25 05:59:12;;;;;;;2.25;1.70;;;;;;;;;;21170192;28;20046;-91
2022/04/25 06:09:15;;;;;;;2.67;1.80;;;;;;;;;;21115362;28;20125;-84
2022/04/25 06:19:17;;;;;;;4.00;1.80;;;;;;;;;;21111455;28;20043;-78
2022/04/25 06:29:19;;;;;;;3.70;1.70;;;;;;;;;;21122205;28;20401;-80
2022/04/25 06:39:20;;;;;;;3.08;1.90;;;;;;;;;;21093707;28;20044;-81
2022/04/25 06:49:25;;;;;;;1.88;1.50;;;;;;;;;;21086639;28;20400;-79
2022/04/25 06:59:27;;;;;;;2.30;1.92;;;;;;;;;;21127612;28;20039;-84
2022/04/25 07:09:29;;;;;;;2.03;1.65;;;;;;;;;;21085717;28;20058;-78
2022/04/25 07:19:32;;;;;;;2.97;1.88;;;;;;;;;;21075917;28;20484;-78
2022/04/25 07:29:34;;;;;;;2.20;1.90;;;;;;;;;;21075470;28;20083;-78
2022/04/25 07:39:36;;;;;;;2.47;1.80;;;;;;;;;;21074756;28;20480;-77
2022/04/25 07:49:38;;;;;;;2.00;1.65;;;;;;;;;;21073820;28;20050;-80
2022/04/25 07:59:43;;;;;;;2.90;2.00;;;;;;;;;;21073353;28;20096;-80
2022/04/25 08:09:45;;;;;;;2.55;1.95;;;;;;;;;;21072657;28;20066;-79
2022/04/25 08:19:47;;;;;;;2.70;1.88;;;;;;;;;;21054969;28;20044;-80
2022/04/25 08:29:49;;;;;;;2.00;1.80;;;;;;;;;;21054200;28;20482;-80
2022/04/25 08:39:50;;;;;;;2.67;1.83;;;;;;;;;;21072602;28;20139;-80
2022/04/25 08:49:52;;;;;;;2.30;2.10;;;;;;;;;;21053750;28;20452;-80
2022/04/25 08:59:55;;;;;;;3.55;2.15;;;;;;;;;;21070828;28;20052;-80
2022/04/25 09:09:57;;;;;;;3.15;2.03;;;;;;;;;;21052295;28;20044;-80
2022/04/25 09:19:59;;;;;;;2.33;1.90;;;;;;;;;;21070074;28;20147;-80
2022/04/25 09:30:20;;;;;;;3.08;1.80;;;;;;;;;;21071588;28;20417;-80
2022/04/25 09:40:22;;;;;;;4.07;1.98;;;;;;;;;;21083922;28;20048;-80
2022/04/25 09:50:27;;;;;;;3.13;2.10;;;;;;;;;;21083140;28;20052;-80
2022/04/25 10:00:49;;;;;;;2.20;1.75;;;;;;;;;;21083552;28;20594;-80
2022/04/25 10:10:57;;;;;;;3.13;1.58;;;;;;;;;;21047228;28;20048;-80
2022/04/25 10:20:59;;;;;;;2.47;1.92;;;;;;;;;;21080915;28;20052;-80
2022/04/25 10:31:03;;;;;;;3.03;1.48;;;;;;;;;;21062593;28;20044;-80
2022/04/25 10:51:38;;;;;;;1.88;1.40;;;;;;;;;;21079130;28;20040;-80
2022/04/25 11:01:44;;;;;;;2.03;1.38;;;;;;;;;;21059596;28;20075;-80
2022/04/25 11:11:53;;;;;;;1.98;1.67;;;;;;;;;;21058945;28;20163;-80
2022/04/25 11:21:55;;;;;;;2.65;1.48;;;;;;;;;;21058994;28;20060;-80
2022/04/25 11:32:16;;;;;;;1.30;1.20;;;;;;;;;;21057739;28;20097;-80
2022/04/25 11:42:18;;;;;;;1.88;1.27;;;;;;;;;;21056741;28;20036;-80
2022/04/25 11:52:20;;;;;;;1.42;1.30;;;;;;;;;;21073269;28;20047;-80
2022/04/25 12:02:33;;;;;;;2.80;1.55;;;;;;;;;;21073120;28;20040;-80
2022/04/25 12:22:57;;;;;;;2.00;1.50;;;;;;;;;;20988795;28;20508;-80
2022/04/25 12:33:18;;;;;;;2.25;1.40;;;;;;;;;;20953882;28;20049;-80
2022/04/25 12:43:39;;;;;;;2.10;1.38;;;;;;;;;;20970540;28;20052;-79
2022/04/25 12:53:42;;;;;;;1.38;1.27;;;;;;;;;;20969848;28;20402;-81
2022/04/25 13:04:02;;;;;;;1.30;1.13;;;;;;;;;;20997272;28;20047;-80
2022/04/25 13:14:05;;;;;;;1.65;1.40;;;;;;;;;;21086600;28;20443;-80
2022/04/25 13:24:07;;;;;;;2.08;1.30;;;;;;;;;;21085820;28;20131;-80
2022/04/25 13:34:09;;;;;;;1.65;1.20;;;;;;;;;;21050265;28;20040;-80
2022/04/25 13:44:11;;;;;;;1.52;1.40;;;;;;;;;;21065872;28;20044;-80
2022/04/25 13:54:13;;;;;;;1.30;1.10;;;;;;;;;;21064875;28;20043;-80
2022/04/25 14:04:14;;;;;;;1.98;1.10;;;;;;;;;;21082108;28;20052;-80
2022/04/25 14:14:16;;;;;;;1.75;1.23;;;;;;;;;;21081936;28;20048;-80
2022/04/25 14:24:20;;;;;;;1.60;1.17;;;;;;;;;;21061804;28;20042;-80
2022/04/25 14:34:22;;;;;;;1.40;1.00;;;;;;;;;;21079857;28;20485;-80
2022/04/25 14:44:24;;;;;;;1.30;1.20;;;;;;;;;;21061042;28;20043;-80
2022/04/25 14:54:30;;;;;;;1.35;1.25;;;;;;;;;;21060207;28;20048;-80
2022/04/25 15:04:32;;;;;;;1.83;1.20;;;;;;;;;;21059690;28;20048;-80
2022/04/25 15:14:35;;;;;;;1.10;1.00;;;;;;;;;;21042806;28;20044;-80
2022/04/25 15:24:37;;;;;;;1.55;1.30;;;;;;;;;;21075518;28;20052;-80
2022/04/25 15:34:39;;;;;;;1.60;1.15;;;;;;;;;;21074957;28;20058;-80
2022/04/25 15:44:40;;;;;;;1.30;1.08;;;;;;;;;;21074412;28;20044;-80
2022/04/25 16:05:03;;;;;;;1.77;1.30;;;;;;;;;;21057998;28;20044;-80
2022/04/25 16:15:06;;;;;;;1.58;1.25;;;;;;;;;;21073026;28;20044;-81
2022/04/25 16:25:08;;;;;;;1.40;1.30;;;;;;;;;;21072886;28;20037;-80
2022/04/25 16:35:09;;;;;;;1.60;1.30;;;;;;;;;;21054382;28;20097;-80
2022/04/25 16:45:12;;;;;;;1.73;1.13;;;;;;;;;;21082635;28;20046;-80
2022/04/25 16:55:13;;;;;;;2.58;1.60;;;;;;;;;;21053460;28;20085;-80
2022/04/25 17:05:15;;;;;;;1.20;1.10;;;;;;;;;;21068996;28;20409;-80
2022/04/25 17:15:17;;;;;;;1.67;1.38;;;;;;;;;;21086236;28;20076;-80
2022/04/25 17:25:19;;;;;;;1.77;1.67;;;;;;;;;;21067369;28;20473;-80
2022/04/25 17:35:23;;;;;;;2.20;1.77;;;;;;;;;;21067178;28;20050;-81
